createdAt,value
2018-07-09T00:00:35.161Z,61.19
2018-07-09T00:01:35.160Z,61.19
2018-07-09T00:02:35.168Z,61.49
2018-07-09T00:03:35.201Z,62.54
2018-07-09T00:04:35.167Z,63.12
2018-07-09T00:05:35.172Z,63.12
2018-07-09T00:06:35.181Z,63.28
2018-07-09T00:07:35.176Z,63.95
2018-07-09T00:08:35.179Z,63.38
2018-07-09T00:09:35.196Z,63.67
2018-07-09T00:10:35.189Z,63.86
2018-07-09T00:11:35.187Z,61.97
2018-07-09T00:12:35.188Z,62.54
2018-07-09T00:13:35.202Z,63.12
2018-07-09T00:14:35.227Z,62.83
2018-07-09T00:15:35.226Z,63.28
2018-07-09T00:16:35.247Z,64.05
2018-07-09T00:17:35.202Z,64.25
2018-07-09T00:18:35.208Z,63.95
2018-07-09T00:19:35.211Z,64.25
2018-07-09T00:20:35.242Z,63.99
2018-07-09T00:21:35.220Z,63.67
2018-07-09T00:22:35.219Z,64.05
2018-07-09T00:23:35.223Z,64.31
2018-07-09T00:24:35.223Z,63.09
2018-07-09T00:25:35.229Z,63.48
2018-07-09T00:26:35.234Z,64.60
2018-07-09T00:27:35.236Z,65.08
2018-07-09T00:28:35.237Z,67.35
2018-07-09T00:29:35.263Z,67.29
2018-07-09T00:30:35.253Z,65.94
2018-07-09T00:31:35.248Z,65.66
2018-07-09T00:32:35.248Z,65.66
2018-07-09T00:33:35.256Z,66.42
2018-07-09T00:34:35.266Z,66.42
2018-07-09T00:35:43.903Z,65.84
2018-07-09T00:37:28.783Z,65.46
2018-07-09T00:38:28.671Z,66.23
2018-07-09T00:39:28.672Z,65.94
2018-07-09T00:40:28.675Z,65.94
2018-07-09T00:41:28.738Z,65.66
2018-07-09T00:42:28.679Z,66.04
2018-07-09T00:43:28.681Z,65.84
2018-07-09T00:44:28.683Z,65.69
2018-07-09T00:45:28.794Z,65.37
2018-07-09T00:46:28.712Z,66.42
2018-07-09T00:47:28.694Z,65.66
2018-07-09T00:48:28.690Z,65.84
2018-07-09T00:49:28.727Z,66.23
2018-07-09T00:50:28.714Z,66.33
2018-07-09T00:51:28.702Z,66.61
2018-07-09T00:52:28.708Z,66.14
2018-07-09T00:53:28.764Z,65.75
2018-07-09T00:54:28.721Z,65.94
2018-07-09T00:55:28.736Z,65.84
2018-07-09T00:56:28.714Z,65.94
2018-07-09T00:57:28.842Z,65.84
2018-07-09T00:58:28.727Z,65.56
2018-07-09T00:59:28.733Z,66.14
2018-07-09T01:00:28.732Z,65.46
2018-07-09T01:01:28.751Z,65.17
2018-07-09T01:02:28.795Z,65.27
2018-07-09T01:03:28.742Z,65.94
2018-07-09T01:04:28.745Z,65.27
2018-07-09T01:05:28.797Z,64.73
2018-07-09T01:06:28.748Z,66.58
2018-07-09T01:07:28.755Z,67.00
2018-07-09T01:08:28.758Z,66.14
2018-07-09T01:09:28.794Z,65.66
2018-07-09T01:10:28.761Z,65.27
2018-07-09T01:11:28.791Z,65.37
2018-07-09T01:12:28.768Z,64.53
2018-07-09T01:13:28.772Z,63.02
2018-07-09T01:14:28.783Z,64.40
2018-07-09T01:15:28.779Z,65.75
2018-07-09T01:16:28.778Z,65.08
2018-07-09T01:17:28.782Z,64.05
2018-07-09T01:18:28.777Z,64.31
2018-07-09T01:19:28.792Z,65.17
2018-07-09T01:20:28.872Z,65.27
2018-07-09T01:21:28.806Z,63.28
2018-07-09T01:22:28.792Z,61.58
2018-07-09T01:23:28.797Z,62.71
2018-07-09T01:24:28.795Z,62.77
2018-07-09T01:25:37.447Z,63.35
2018-07-09T01:27:22.297Z,64.02
2018-07-09T01:28:22.229Z,64.12
2018-07-09T01:29:22.198Z,64.28
2018-07-09T01:30:22.207Z,64.50
2018-07-09T01:31:22.201Z,63.83
2018-07-09T01:32:22.225Z,64.50
2018-07-09T01:33:22.226Z,64.22
2018-07-09T01:34:22.216Z,64.89
2018-07-09T01:35:22.243Z,64.12
2018-07-09T01:36:22.219Z,64.31
2018-07-09T01:37:22.220Z,64.02
2018-07-09T01:38:22.251Z,65.33
2018-07-09T01:39:22.230Z,65.66
2018-07-09T01:40:22.224Z,63.95
2018-07-09T01:41:22.232Z,63.73
2018-07-09T01:42:22.243Z,64.02
2018-07-09T01:43:22.240Z,65.46
2018-07-09T01:44:22.243Z,64.63
2018-07-09T01:45:22.259Z,63.09
2018-07-09T01:46:22.242Z,63.92
2018-07-09T01:47:22.253Z,66.00
2018-07-09T01:48:22.295Z,66.39
2018-07-09T01:49:22.242Z,65.84
2018-07-09T01:50:22.250Z,65.75
2018-07-09T01:51:22.253Z,66.30
2018-07-09T01:52:22.257Z,67.90
2018-07-09T01:53:22.256Z,69.20
2018-07-09T01:54:22.261Z,69.59
2018-07-09T01:55:22.266Z,69.34
2018-07-09T01:56:22.258Z,66.33
2018-07-09T01:57:22.265Z,65.14
2018-07-09T01:58:22.264Z,67.03
2018-07-09T01:59:22.272Z,67.32
2018-07-09T02:00:22.274Z,67.99
2018-07-09T02:01:22.273Z,66.55
2018-07-09T02:02:22.275Z,66.87
2018-07-09T02:03:22.278Z,67.13
2018-07-09T02:04:22.288Z,66.39
2018-07-09T02:05:22.279Z,67.13
2018-07-09T02:06:22.288Z,69.05
2018-07-09T02:07:22.294Z,67.07
2018-07-09T02:08:22.298Z,69.01
2018-07-09T02:09:22.289Z,69.34
2018-07-09T02:10:22.302Z,69.97
2018-07-09T02:11:22.294Z,70.29
2018-07-09T02:12:22.306Z,69.62
2018-07-09T02:13:22.296Z,68.66
2018-07-09T02:14:22.297Z,67.90
2018-07-09T02:15:22.295Z,68.91
2018-07-09T02:16:22.310Z,69.87
2018-07-09T02:17:22.307Z,69.91
2018-07-09T02:18:22.305Z,68.95
2018-07-09T02:19:22.312Z,69.11
2018-07-09T02:20:22.344Z,69.59
2018-07-09T02:21:22.308Z,68.76
2018-07-09T02:22:22.315Z,69.68
2018-07-09T02:23:22.318Z,69.53
2018-07-09T02:24:22.322Z,69.68
2018-07-09T02:25:22.319Z,71.03
2018-07-09T02:26:22.326Z,70.64
2018-07-09T02:27:22.320Z,70.36
2018-07-09T02:28:22.329Z,70.36
2018-07-09T02:29:22.336Z,69.97
2018-07-09T02:30:22.336Z,69.40
2018-07-09T02:31:22.350Z,68.66
2018-07-09T02:32:22.338Z,66.87
2018-07-09T02:33:22.333Z,66.10
2018-07-09T02:34:22.342Z,66.46
2018-07-09T02:35:22.340Z,68.85
2018-07-09T02:36:22.373Z,67.61
2018-07-09T02:37:22.366Z,66.30
2018-07-09T02:38:22.342Z,66.74
2018-07-09T02:39:22.345Z,67.22
2018-07-09T02:40:22.350Z,68.82
2018-07-09T02:41:22.356Z,70.23
2018-07-09T02:42:22.350Z,71.09
2018-07-09T02:43:22.359Z,70.07
2018-07-09T02:44:22.362Z,70.42
2018-07-09T02:45:22.362Z,70.70
2018-07-09T02:46:22.370Z,71.37
2018-07-09T02:47:22.378Z,70.42
2018-07-09T02:48:22.363Z,68.82
2018-07-09T02:49:22.367Z,70.07
2018-07-09T02:50:22.372Z,71.09
2018-07-09T02:51:22.371Z,70.23
2018-07-09T02:52:22.372Z,70.32
2018-07-09T02:53:22.373Z,68.53
2018-07-09T02:54:22.376Z,69.56
2018-07-09T02:55:22.372Z,70.26
2018-07-09T02:56:22.377Z,69.56
2018-07-09T02:57:22.422Z,70.70
2018-07-09T02:58:22.383Z,72.39
2018-07-09T03:17:56.902Z,72.78
2018-07-09T03:18:56.911Z,73.35
2018-07-09T03:19:56.884Z,73.26
2018-07-09T03:20:56.876Z,73.26
2018-07-09T03:21:56.878Z,72.43
2018-07-09T03:22:56.870Z,71.86
2018-07-09T03:23:56.881Z,70.51
2018-07-09T03:24:56.879Z,69.68
2018-07-09T03:25:56.896Z,70.23
2018-07-09T03:26:56.871Z,72.20
2018-07-09T03:27:56.889Z,73.32
2018-07-09T03:28:56.873Z,74.27
2018-07-09T03:29:56.874Z,73.70
2018-07-09T03:30:56.880Z,74.12
2018-07-09T03:31:56.887Z,71.82
2018-07-09T03:32:56.881Z,72.53
2018-07-09T03:33:56.883Z,72.68
2018-07-09T03:34:56.867Z,73.70
2018-07-09T03:35:56.875Z,71.57
2018-07-09T03:36:56.877Z,72.39
2018-07-09T03:37:56.893Z,72.30
2018-07-09T03:38:56.890Z,73.83
2018-07-09T03:39:56.890Z,74.12
2018-07-09T03:40:56.886Z,70.80
2018-07-09T03:41:56.906Z,72.68
2018-07-09T03:42:56.895Z,73.26
2018-07-09T03:43:56.880Z,74.02
2018-07-09T03:44:56.882Z,73.07
2018-07-09T03:45:56.892Z,71.86
2018-07-09T03:46:56.892Z,71.28
2018-07-09T03:47:56.889Z,71.72
2018-07-09T03:48:56.899Z,73.83
2018-07-09T03:49:56.894Z,73.26
2018-07-09T03:50:56.889Z,74.31
2018-07-09T03:51:56.887Z,72.11
2018-07-09T03:52:56.919Z,73.26
2018-07-09T03:53:56.912Z,74.95
2018-07-09T03:54:56.959Z,74.66
2018-07-09T03:55:56.920Z,74.08
2018-07-09T03:56:56.901Z,74.66
2018-07-09T03:57:56.909Z,74.37
2018-07-09T03:58:56.937Z,75.43
2018-07-09T03:59:56.924Z,74.18
2018-07-09T04:00:56.939Z,75.87
2018-07-09T04:01:56.933Z,74.18
2018-07-09T04:02:57.015Z,73.99
2018-07-09T04:03:56.927Z,74.85
2018-07-09T04:04:56.956Z,75.77
2018-07-09T04:05:56.907Z,77.88
2018-07-09T04:06:56.914Z,78.17
2018-07-09T04:07:56.952Z,78.07
2018-07-09T04:08:56.907Z,75.71
2018-07-09T04:09:56.980Z,75.71
2018-07-09T04:10:56.949Z,74.95
2018-07-09T04:11:56.931Z,75.81
2018-07-09T04:12:56.918Z,75.71
2018-07-09T04:13:56.919Z,74.79
2018-07-09T04:14:56.913Z,75.90
2018-07-09T04:15:56.936Z,76.67
2018-07-09T04:16:56.964Z,76.00
2018-07-09T04:17:56.927Z,76.00
2018-07-09T04:18:56.956Z,76.19
2018-07-09T04:19:56.971Z,76.39
2018-07-09T04:20:56.959Z,75.81
2018-07-09T04:21:56.980Z,75.14
2018-07-09T04:22:56.926Z,74.76
2018-07-09T04:23:56.924Z,75.14
2018-07-09T04:24:56.955Z,74.95
2018-07-09T04:25:56.942Z,74.85
2018-07-09T04:26:56.951Z,75.14
2018-07-09T04:27:56.926Z,73.83
2018-07-09T04:28:56.939Z,73.83
2018-07-09T04:29:56.963Z,74.12
2018-07-09T04:30:56.996Z,74.02
2018-07-09T04:31:57.014Z,73.83
2018-07-09T04:32:56.958Z,73.83
2018-07-09T04:33:57.086Z,73.20
2018-07-09T04:34:56.970Z,72.05
2018-07-09T04:35:56.937Z,71.86
2018-07-09T04:36:56.960Z,71.57
2018-07-09T04:37:57.005Z,70.51
2018-07-09T04:38:56.955Z,72.81
2018-07-09T04:39:56.953Z,73.39
2018-07-09T04:40:56.961Z,72.81
2018-07-09T04:41:56.960Z,70.01
2018-07-09T04:42:56.966Z,68.73
2018-07-09T04:43:56.996Z,69.24
2018-07-09T04:44:57.166Z,69.59
2018-07-09T04:45:56.978Z,71.28
2018-07-09T04:46:56.981Z,72.47
2018-07-09T04:47:56.984Z,72.08
2018-07-09T04:48:56.988Z,70.64
2018-07-09T04:49:56.999Z,69.72
2018-07-09T04:50:57.023Z,68.76
2018-07-09T04:51:57.015Z,67.61
2018-07-09T04:52:57.018Z,66.87
2018-07-09T04:53:57.033Z,66.39
2018-07-09T04:54:57.039Z,65.53
2018-07-09T04:55:57.045Z,65.27
2018-07-09T04:56:57.060Z,64.98
2018-07-09T04:57:57.087Z,65.14
2018-07-09T04:58:57.081Z,65.17
2018-07-09T04:59:57.134Z,64.60
2018-07-09T05:00:57.107Z,64.89
2018-07-09T05:01:57.120Z,64.34
2018-07-09T05:02:57.140Z,63.67
2018-07-09T05:03:57.164Z,63.09
2018-07-09T05:04:57.184Z,63.12
2018-07-09T05:05:57.179Z,62.54
2018-07-09T05:06:57.183Z,61.49
2018-07-09T05:07:57.200Z,61.32
2018-07-09T05:08:57.216Z,61.25
2018-07-09T05:09:57.240Z,60.00
2018-07-09T05:10:57.245Z,59.94
2018-07-09T05:11:57.265Z,59.91
2018-07-09T05:12:57.345Z,59.17
2018-07-09T05:13:57.306Z,58.69
2018-07-09T05:14:57.316Z,58.52
2018-07-09T05:15:57.345Z,57.07
2018-07-09T05:16:57.373Z,57.46
2018-07-09T05:17:57.371Z,57.46
2018-07-09T05:18:57.386Z,56.24
2018-07-09T05:19:57.404Z,55.10
2018-07-09T05:20:57.427Z,54.36
2018-07-09T05:21:57.450Z,53.42
2018-07-09T05:22:57.487Z,53.61
2018-07-09T05:23:57.481Z,53.61
2018-07-09T05:24:57.504Z,53.03
2018-07-09T05:25:57.515Z,52.55
2018-07-09T05:26:57.541Z,51.71
2018-07-09T05:27:57.562Z,51.23
2018-07-09T05:28:57.636Z,51.54
2018-07-09T05:29:57.610Z,50.57
2018-07-09T05:30:57.617Z,49.90
2018-07-09T05:32:07.020Z,50.31
2018-07-09T05:34:00.135Z,49.44
2018-07-09T05:34:51.094Z,49.37
2018-07-09T05:35:51.115Z,48.49
2018-07-09T05:36:51.135Z,48.39
2018-07-09T05:37:51.160Z,46.97
2018-07-09T05:38:51.180Z,45.73
2018-07-09T05:39:51.208Z,44.76
2018-07-09T05:40:51.225Z,44.37
2018-07-09T05:41:51.252Z,43.79
2018-07-09T05:42:51.270Z,44.37
2018-07-09T05:43:51.297Z,44.49
2018-07-09T05:44:51.313Z,43.35
2018-07-09T05:45:51.343Z,42.96
2018-07-09T05:46:51.365Z,43.23
2018-07-09T05:47:51.391Z,44.09
2018-07-09T05:49:00.059Z,44.54
2018-07-09T05:50:44.871Z,44.10
2018-07-09T05:51:44.894Z,43.08
2018-07-09T05:52:44.898Z,42.23
2018-07-09T05:53:44.927Z,41.74
2018-07-09T05:54:44.953Z,41.06
2018-07-09T05:55:44.972Z,40.39
2018-07-09T05:56:44.996Z,39.62
2018-07-09T05:57:45.024Z,40.83
2018-07-09T05:58:45.042Z,42.07
2018-07-09T05:59:45.073Z,41.43
2018-07-09T06:00:45.106Z,41.05
2018-07-09T06:01:45.120Z,40.79
2018-07-09T06:02:45.147Z,39.84
2018-07-09T06:03:45.169Z,39.75
2018-07-09T06:04:45.195Z,39.53
2018-07-09T06:05:45.227Z,40.17
2018-07-09T06:06:45.284Z,40.56
2018-07-09T06:07:45.276Z,39.84
2018-07-09T06:08:45.329Z,38.11
2018-07-09T06:09:45.362Z,37.00
2018-07-09T06:10:45.355Z,36.53
2018-07-09T06:11:45.380Z,36.69
2018-07-09T06:12:45.412Z,37.90
2018-07-09T06:13:45.420Z,39.70
2018-07-09T06:14:45.448Z,39.51
2018-07-09T06:15:45.510Z,38.77
2018-07-09T06:18:06.614Z,38.89
2018-07-09T06:19:06.624Z,37.66
2018-07-09T06:21:00.150Z,34.58
2018-07-09T06:22:00.088Z,34.47
2018-07-09T06:23:00.409Z,34.88
2018-07-09T06:24:00.159Z,35.73
2018-07-09T06:25:00.149Z,36.87
2018-07-09T06:26:00.171Z,38.29
2018-07-09T06:27:00.182Z,40.26
2018-07-09T06:28:00.215Z,40.25
2018-07-09T06:29:00.229Z,40.44
2018-07-09T06:30:00.240Z,40.91
2018-07-09T06:31:00.249Z,41.10
2018-07-09T06:32:00.265Z,41.88
2018-07-09T06:33:00.279Z,42.17
2018-07-09T06:34:00.309Z,42.14
2018-07-09T06:35:00.320Z,42.51
2018-07-09T06:36:00.335Z,44.06
2018-07-09T06:37:00.394Z,42.90
2018-07-09T06:38:00.357Z,43.89
2018-07-09T06:39:00.364Z,43.38
2018-07-09T06:40:00.375Z,43.77
2018-07-09T06:41:00.396Z,45.03
2018-07-09T06:42:00.404Z,44.53
2018-07-09T06:43:00.420Z,45.49
2018-07-09T06:44:00.425Z,45.78
2018-07-09T06:45:00.438Z,46.17
2018-07-09T06:46:00.451Z,46.66
2018-07-09T06:47:00.460Z,46.66
2018-07-09T06:48:00.476Z,46.83
2018-07-09T06:49:00.497Z,48.11
2018-07-09T06:50:00.544Z,47.79
2018-07-09T06:52:21.602Z,47.19
2018-07-09T06:53:21.584Z,47.77
2018-07-09T06:54:21.586Z,47.65
2018-07-09T06:55:21.593Z,47.74
2018-07-09T06:56:21.604Z,47.67
2018-07-09T06:57:21.612Z,48.35
2018-07-09T06:58:21.630Z,48.25
2018-07-09T07:00:42.681Z,49.02
2018-07-09T07:01:42.684Z,49.29
2018-07-09T07:02:42.681Z,49.02
2018-07-09T07:03:42.693Z,49.90
2018-07-09T07:04:42.697Z,49.70
2018-07-09T07:05:42.711Z,49.77
2018-07-09T07:06:42.715Z,49.49
2018-07-09T07:07:42.725Z,50.07
2018-07-09T07:08:42.770Z,50.16
2018-07-09T07:09:42.742Z,50.07
2018-07-09T07:10:42.750Z,49.58
2018-07-09T07:11:42.765Z,49.37
2018-07-09T07:12:42.761Z,50.81
2018-07-09T07:13:42.772Z,49.77
2018-07-09T07:14:42.776Z,49.46
2018-07-09T07:15:42.784Z,49.85
2018-07-09T07:16:42.800Z,51.13
2018-07-09T07:17:42.801Z,50.65
2018-07-09T07:18:42.813Z,49.58
2018-07-09T07:19:42.819Z,49.58
2018-07-09T07:20:42.822Z,49.97
2018-07-09T07:21:42.858Z,49.87
2018-07-09T07:22:42.843Z,51.42
2018-07-09T07:23:42.848Z,50.93
2018-07-09T07:24:42.863Z,51.42
2018-07-09T07:25:42.862Z,50.55
2018-07-09T07:26:42.882Z,50.35
2018-07-09T07:27:42.880Z,49.77
2018-07-09T07:28:42.887Z,50.35
2018-07-09T07:29:42.890Z,50.16
2018-07-09T07:30:42.902Z,51.71
2018-07-09T07:31:42.913Z,51.03
2018-07-09T07:32:42.940Z,51.32
2018-07-09T07:33:42.925Z,51.90
2018-07-09T07:34:42.941Z,51.51
2018-07-09T07:35:42.951Z,51.61
2018-07-09T07:36:51.591Z,50.55
2018-07-09T07:38:36.378Z,50.45
2018-07-09T07:39:36.351Z,50.81
2018-07-09T07:40:36.359Z,50.71
2018-07-09T07:41:36.367Z,50.55
2018-07-09T07:42:36.380Z,50.33
2018-07-09T07:43:36.384Z,50.74
2018-07-09T07:44:36.392Z,50.23
2018-07-09T07:45:36.395Z,51.71
2018-07-09T07:46:36.395Z,52.29
2018-07-09T07:47:36.406Z,51.81
2018-07-09T07:48:36.417Z,52.09
2018-07-09T07:49:36.420Z,51.83
2018-07-09T07:50:36.611Z,51.42
2018-07-09T07:51:36.439Z,51.51
2018-07-09T07:52:36.439Z,51.51
2018-07-09T07:53:36.449Z,51.97
2018-07-09T07:54:36.456Z,51.39
2018-07-09T07:55:36.461Z,51.29
2018-07-09T07:56:36.474Z,51.68
2018-07-09T07:57:36.477Z,51.71
2018-07-09T07:58:36.481Z,51.49
2018-07-09T07:59:36.490Z,52.29
2018-07-09T08:00:36.496Z,51.71
2018-07-09T08:01:36.498Z,51.71
2018-07-09T08:02:36.510Z,51.61
2018-07-09T08:03:36.518Z,51.42
2018-07-09T08:04:36.522Z,52.39
2018-07-09T08:05:36.530Z,52.29
2018-07-09T08:06:36.536Z,51.51
2018-07-09T08:07:36.550Z,51.61
2018-07-09T08:08:36.550Z,51.23
2018-07-09T08:09:36.614Z,52.00
2018-07-09T08:10:36.563Z,51.32
2018-07-09T08:11:48.553Z,51.71
2018-07-09T08:13:36.652Z,51.81
2018-07-09T08:14:36.594Z,50.65
2018-07-09T08:15:36.685Z,50.74
2018-07-09T08:16:36.600Z,51.03
2018-07-09T08:17:36.611Z,51.13
2018-07-09T08:18:36.613Z,51.51
2018-07-09T08:19:36.626Z,51.61
2018-07-09T08:20:36.625Z,52.51
2018-07-09T08:21:36.635Z,51.54
2018-07-09T08:22:36.641Z,52.19
2018-07-09T08:23:36.654Z,52.41
2018-07-09T08:24:36.671Z,51.42
2018-07-09T08:25:36.789Z,52.29
2018-07-09T08:26:36.673Z,52.48
2018-07-09T08:27:36.710Z,51.61
2018-07-09T08:28:36.685Z,51.44
2018-07-09T08:29:36.696Z,51.61
2018-07-09T08:30:45.953Z,51.44
2018-07-09T08:32:30.124Z,51.35
2018-07-09T08:33:30.117Z,51.44
2018-07-09T08:34:30.117Z,51.25
2018-07-09T08:35:30.123Z,51.35
2018-07-09T08:36:30.123Z,52.31
2018-07-09T08:38:52.227Z,52.51
2018-07-09T08:39:52.211Z,52.31
2018-07-09T08:40:52.216Z,50.28
2018-07-09T08:41:52.223Z,50.48
2018-07-09T08:42:52.233Z,51.54
2018-07-09T08:43:52.231Z,52.51
2018-07-09T08:44:52.238Z,51.35
2018-07-09T08:45:52.294Z,51.73
2018-07-09T08:46:52.317Z,50.79
2018-07-09T08:47:52.275Z,51.15
2018-07-09T08:48:52.271Z,52.34
2018-07-09T08:49:52.274Z,50.50
2018-07-09T08:50:52.281Z,50.70
2018-07-09T08:51:52.290Z,49.73
2018-07-09T08:52:52.290Z,50.60
2018-07-09T08:53:52.301Z,50.21
2018-07-09T08:54:52.308Z,50.67
2018-07-09T08:55:52.317Z,50.67
2018-07-09T08:56:52.322Z,50.48
2018-07-09T08:57:52.323Z,49.82
2018-07-09T08:58:52.346Z,49.92
2018-07-09T08:59:52.339Z,49.63
2018-07-09T09:00:52.366Z,50.70
2018-07-09T09:01:52.404Z,49.24
2018-07-09T09:02:52.367Z,50.79
2018-07-09T09:03:52.409Z,49.82
2018-07-09T09:04:52.373Z,49.54
2018-07-09T09:05:52.486Z,50.40
2018-07-09T09:06:52.402Z,50.79
2018-07-09T09:07:52.388Z,50.98
2018-07-09T09:08:52.393Z,48.88
2018-07-09T09:09:52.413Z,48.57
2018-07-09T09:10:52.416Z,48.95
2018-07-09T09:11:52.415Z,48.86
2018-07-09T09:12:52.425Z,48.66
2018-07-09T09:13:52.432Z,48.08
2018-07-09T09:14:52.439Z,47.79
2018-07-09T09:15:52.445Z,47.89
2018-07-09T09:16:52.455Z,46.83
2018-07-09T09:17:52.460Z,46.73
2018-07-09T09:18:52.467Z,47.79
2018-07-09T09:19:52.469Z,48.69
2018-07-09T09:20:52.478Z,48.69
2018-07-09T09:21:52.480Z,47.52
2018-07-09T09:22:52.496Z,48.20
2018-07-09T09:23:52.499Z,47.81
2018-07-09T09:24:52.505Z,47.79
2018-07-09T09:25:52.515Z,48.01
2018-07-09T09:26:52.521Z,48.01
2018-07-09T09:27:52.526Z,47.91
2018-07-09T09:28:52.527Z,46.84
2018-07-09T09:29:52.540Z,47.62
2018-07-09T09:30:52.544Z,46.66
2018-07-09T09:31:52.551Z,45.68
2018-07-09T09:32:52.563Z,46.75
2018-07-09T09:33:52.581Z,47.14
2018-07-09T09:34:52.577Z,46.94
2018-07-09T09:35:52.584Z,46.94
2018-07-09T09:36:52.605Z,47.94
2018-07-09T09:37:52.608Z,46.77
2018-07-09T09:38:52.599Z,45.71
2018-07-09T09:39:52.605Z,46.67
2018-07-09T09:40:52.610Z,46.66
2018-07-09T09:41:52.613Z,46.36
2018-07-09T09:42:52.628Z,45.98
2018-07-09T09:43:52.628Z,45.78
2018-07-09T09:44:52.655Z,44.26
2018-07-09T09:45:52.647Z,45.51
2018-07-09T09:46:52.656Z,46.29
2018-07-09T09:47:52.659Z,45.30
2018-07-09T09:48:52.669Z,45.51
2018-07-09T09:49:52.674Z,46.39
2018-07-09T09:50:52.697Z,45.30
2018-07-09T09:51:52.694Z,46.26
2018-07-09T09:52:52.700Z,46.17
2018-07-09T09:53:52.699Z,45.10
2018-07-09T09:54:52.714Z,45.40
2018-07-09T09:55:52.711Z,44.91
2018-07-09T09:56:52.722Z,45.68
2018-07-09T09:57:52.723Z,45.59
2018-07-09T09:58:52.732Z,46.97
2018-07-09T09:59:52.740Z,45.22
2018-07-09T10:00:52.743Z,43.96
2018-07-09T10:01:52.754Z,44.96
2018-07-09T10:02:52.762Z,45.90
2018-07-09T10:03:52.769Z,45.42
2018-07-09T10:04:52.780Z,43.38
2018-07-09T10:05:52.784Z,43.29
2018-07-09T10:06:52.786Z,42.03
2018-07-09T10:07:52.796Z,42.90
2018-07-09T10:08:52.801Z,42.61
2018-07-09T10:09:52.805Z,42.32
2018-07-09T10:10:52.815Z,42.90
2018-07-09T10:11:52.824Z,44.35
2018-07-09T10:12:52.828Z,44.18
2018-07-09T10:13:52.849Z,44.16
2018-07-09T10:14:52.842Z,42.90
2018-07-09T10:15:52.850Z,42.80
2018-07-09T10:16:52.893Z,42.80
2018-07-09T10:17:52.865Z,42.82
2018-07-09T10:18:52.875Z,42.63
2018-07-09T10:19:52.878Z,42.14
2018-07-09T10:20:52.880Z,42.03
2018-07-09T10:21:52.896Z,42.41
2018-07-09T10:22:52.992Z,42.41
2018-07-09T10:23:52.899Z,42.61
2018-07-09T10:24:52.916Z,43.29
2018-07-09T10:25:52.920Z,42.63
2018-07-09T10:26:52.927Z,42.82
2018-07-09T10:27:52.968Z,42.51
2018-07-09T10:28:52.957Z,43.58
2018-07-09T10:29:52.948Z,45.13
2018-07-09T10:30:52.956Z,43.96
2018-07-09T10:31:52.963Z,44.84
2018-07-09T10:32:52.974Z,44.26
2018-07-09T10:33:52.976Z,44.26
2018-07-09T10:34:52.981Z,45.71
2018-07-09T10:35:52.986Z,45.71
2018-07-09T10:36:53.050Z,44.26
2018-07-09T10:37:53.005Z,45.13
2018-07-09T10:38:53.011Z,45.51
2018-07-09T10:39:53.036Z,44.54
2018-07-09T10:40:53.022Z,44.26
2018-07-09T10:41:53.027Z,45.22
2018-07-09T10:42:53.037Z,45.71
2018-07-09T10:43:53.048Z,44.86
2018-07-09T10:44:53.076Z,42.92
2018-07-09T10:45:53.056Z,42.14
2018-07-09T10:46:53.074Z,41.58
2018-07-09T10:47:53.076Z,42.63
2018-07-09T10:48:53.078Z,43.02
2018-07-09T10:49:53.116Z,43.38
2018-07-09T10:50:53.094Z,43.48
2018-07-09T10:51:53.121Z,43.58
2018-07-09T10:52:53.106Z,44.57
2018-07-09T10:53:53.109Z,44.18
2018-07-09T10:54:53.153Z,43.41
2018-07-09T10:55:53.140Z,44.64
2018-07-09T10:56:53.146Z,44.47
2018-07-09T10:57:53.157Z,44.18
2018-07-09T10:58:53.158Z,45.42
2018-07-09T10:59:53.197Z,45.05
2018-07-09T11:00:53.253Z,44.18
2018-07-09T11:01:53.194Z,44.09
2018-07-09T11:02:53.177Z,45.44
2018-07-09T11:03:53.192Z,45.54
2018-07-09T11:04:53.205Z,45.15
2018-07-09T11:05:53.229Z,44.98
2018-07-09T11:06:53.209Z,44.09
2018-07-09T11:07:53.228Z,45.34
2018-07-09T11:08:53.225Z,45.64
2018-07-09T11:09:53.232Z,45.54
2018-07-09T11:10:53.235Z,45.44
2018-07-09T11:11:53.268Z,46.80
2018-07-09T11:12:53.294Z,46.31
2018-07-09T11:14:01.956Z,45.83
2018-07-09T11:15:46.688Z,46.58
2018-07-09T11:16:46.689Z,46.97
2018-07-09T11:17:46.698Z,47.28
2018-07-09T11:18:46.716Z,45.37
2018-07-09T11:19:46.692Z,43.91
2018-07-09T11:20:46.745Z,44.47
2018-07-09T11:21:46.710Z,45.25
2018-07-09T11:22:46.717Z,45.54
2018-07-09T11:23:46.725Z,45.83
2018-07-09T11:24:46.730Z,45.34
2018-07-09T11:25:46.801Z,44.18
2018-07-09T11:26:46.738Z,45.15
2018-07-09T11:27:46.776Z,45.05
2018-07-09T11:28:46.763Z,44.37
2018-07-09T11:29:46.767Z,44.27
2018-07-09T11:30:46.769Z,44.27
2018-07-09T11:31:46.790Z,44.09
2018-07-09T11:32:46.783Z,43.41
2018-07-09T11:33:46.799Z,43.89
2018-07-09T11:34:46.809Z,44.27
2018-07-09T11:35:46.871Z,43.41
2018-07-09T11:36:46.814Z,44.57
2018-07-09T11:37:46.914Z,44.96
2018-07-09T11:38:46.848Z,44.47
2018-07-09T11:39:46.868Z,45.05
2018-07-09T11:40:46.868Z,45.05
2018-07-09T11:41:46.877Z,44.76
2018-07-09T11:42:46.899Z,44.27
2018-07-09T11:43:46.903Z,45.25
2018-07-09T11:44:47.005Z,43.41
2018-07-09T11:45:46.950Z,45.07
2018-07-09T11:46:46.997Z,44.30
2018-07-09T11:47:46.915Z,45.07
2018-07-09T11:48:56.225Z,44.20
2018-07-09T11:50:40.349Z,42.94
2018-07-09T11:51:40.305Z,42.17
2018-07-09T11:52:40.318Z,41.88
2018-07-09T11:53:40.332Z,41.39
2018-07-09T11:54:40.346Z,41.58
2018-07-09T11:55:40.340Z,41.30
2018-07-09T11:56:40.343Z,41.30
2018-07-09T11:57:40.351Z,42.85
2018-07-09T11:58:40.402Z,42.94
2018-07-09T11:59:40.367Z,42.75
2018-07-09T12:00:40.384Z,42.85
2018-07-09T12:01:40.384Z,41.78
2018-07-09T12:02:40.390Z,42.29
2018-07-09T12:03:40.392Z,41.97
2018-07-09T12:04:40.451Z,40.91
2018-07-09T12:05:40.420Z,41.00
2018-07-09T12:06:40.416Z,41.20
2018-07-09T12:07:40.424Z,41.10
2018-07-09T12:08:40.433Z,39.18
2018-07-09T12:09:40.438Z,38.99
2018-07-09T12:10:40.452Z,38.60
2018-07-09T12:11:40.489Z,38.68
2018-07-09T12:12:40.522Z,39.47
2018-07-09T12:13:40.499Z,39.36
2018-07-09T12:14:40.486Z,40.33
2018-07-09T12:15:40.830Z,41.39
2018-07-09T12:16:40.583Z,42.26
2018-07-09T12:17:40.528Z,41.39
2018-07-09T12:18:40.511Z,41.58
2018-07-09T12:19:40.521Z,41.58
2018-07-09T12:20:40.580Z,41.12
2018-07-09T12:21:40.558Z,40.71
2018-07-09T12:22:40.565Z,41.00
2018-07-09T12:23:40.543Z,41.68
2018-07-09T12:24:40.550Z,41.41
2018-07-09T12:25:40.564Z,41.12
2018-07-09T12:26:40.572Z,41.43
2018-07-09T12:27:40.571Z,41.02
2018-07-09T12:28:40.579Z,40.92
2018-07-09T12:29:40.594Z,40.92
2018-07-09T12:30:40.593Z,41.41
2018-07-09T12:31:40.602Z,41.41
2018-07-09T12:32:40.615Z,41.43
2018-07-09T12:33:40.627Z,39.78
2018-07-09T12:34:40.626Z,40.92
2018-07-09T12:35:40.642Z,41.51
2018-07-09T12:36:40.643Z,41.22
2018-07-09T12:37:40.656Z,40.25
2018-07-09T12:38:40.652Z,40.83
2018-07-09T12:39:40.672Z,39.95
2018-07-09T12:40:40.683Z,40.91
2018-07-09T12:41:40.686Z,40.25
2018-07-09T12:42:40.692Z,40.81
2018-07-09T12:43:40.793Z,40.73
2018-07-09T12:44:40.717Z,40.83
2018-07-09T12:45:40.727Z,40.83
2018-07-09T12:46:40.724Z,40.54
2018-07-09T12:47:40.725Z,40.64
2018-07-09T12:48:40.739Z,39.57
2018-07-09T12:49:40.799Z,40.73
2018-07-09T12:50:40.745Z,41.02
2018-07-09T12:51:40.773Z,41.51
2018-07-09T12:52:40.769Z,41.89
2018-07-09T12:53:40.791Z,41.22
2018-07-09T12:54:40.785Z,40.92
2018-07-09T12:55:40.808Z,40.34
2018-07-09T12:56:40.793Z,41.31
2018-07-09T12:57:40.801Z,40.92
2018-07-09T12:58:40.803Z,40.25
2018-07-09T12:59:40.810Z,39.76
2018-07-09T13:00:40.831Z,38.04
2018-07-09T13:01:40.868Z,38.62
2018-07-09T13:02:40.916Z,39.49
2018-07-09T13:03:40.850Z,39.69
2018-07-09T13:04:40.903Z,39.20
2018-07-09T13:05:40.854Z,38.71
2018-07-09T13:06:40.907Z,38.71
2018-07-09T13:07:40.878Z,39.11
2018-07-09T13:08:40.879Z,39.47
2018-07-09T13:09:40.888Z,39.47
2018-07-09T13:10:40.898Z,39.57
2018-07-09T13:11:40.902Z,39.57
2018-07-09T13:12:40.915Z,40.05
2018-07-09T13:13:40.958Z,40.25
2018-07-09T13:14:40.930Z,40.44
2018-07-09T13:15:40.929Z,40.83
2018-07-09T13:16:40.944Z,39.69
2018-07-09T13:17:40.949Z,39.98
2018-07-09T13:18:40.967Z,38.93
2018-07-09T13:19:40.966Z,38.15
2018-07-09T13:20:40.973Z,38.62
2018-07-09T13:21:40.996Z,39.67
2018-07-09T13:22:41.032Z,40.05
2018-07-09T13:23:41.002Z,38.52
2018-07-09T13:24:41.002Z,39.69
2018-07-09T13:25:41.010Z,39.86